Time;durP1;ratioP1;P1;durP2;ratioP2;P2;SDS_P1;SDS_P2;PMS_P1;PMS_P2;Temp;Humidity;BMP_temperature;BMP_pressure;BME280_temperature;BME280_humidity;BME280_pressure;Samples;Min_cycle;Max_cycle;Signal;HPM_P1;HPM_P2
2023/07/29 00:00:32;;;;;;;8.87;4.20;;;;;;;24.14;60.57;99664.25;5036140;28;20116;-84
2023/07/29 00:02:58;;;;;;;8.27;4.30;;;;;;;24.13;60.90;99661.66;5036888;28;20029;-84
2023/07/29 00:05:23;;;;;;;7.27;3.93;;;;;;;24.11;60.90;99664.44;5036620;28;20053;-82
2023/07/29 00:07:48;;;;;;;8.93;4.50;;;;;;;24.09;61.34;99658.31;5034722;28;20083;-83
2023/07/29 00:10:14;;;;;;;8.43;4.43;;;;;;;24.06;61.41;99654.03;5033884;28;20467;-84
2023/07/29 00:12:40;;;;;;;7.63;4.30;;;;;;;24.06;61.59;99655.84;5034348;28;20029;-84
2023/07/29 00:15:06;;;;;;;7.45;4.57;;;;;;;24.04;61.80;99664.06;5034067;28;20029;-84
2023/07/29 00:17:32;;;;;;;8.00;4.50;;;;;;;24.02;61.86;99663.31;5035188;28;20029;-84
2023/07/29 00:19:58;;;;;;;8.57;4.07;;;;;;;24.00;61.78;99662.53;5035480;28;20513;-85
2023/07/29 00:22:24;;;;;;;7.93;4.65;;;;;;;23.98;61.99;99658.19;5031739;28;20026;-85
2023/07/29 00:25:00;;;;;;;7.27;4.53;;;;;;;23.90;62.13;99656.91;5034618;28;20038;-85
2023/07/29 00:27:26;;;;;;;8.25;4.80;;;;;;;23.83;62.26;99652.06;5034490;28;20017;-85
2023/07/29 00:29:52;;;;;;;8.27;4.50;;;;;;;23.79;62.74;99648.72;5034080;28;20043;-84
2023/07/29 00:32:17;;;;;;;9.23;4.60;;;;;;;23.77;62.49;99654.22;5035654;28;20022;-84
2023/07/29 00:34:43;;;;;;;7.07;4.25;;;;;;;23.71;62.68;99648.41;5038692;28;20093;-85
2023/07/29 00:37:08;;;;;;;8.20;4.43;;;;;;;23.61;63.15;99657.09;5039591;28;20033;-84
2023/07/29 00:39:34;;;;;;;8.50;4.47;;;;;;;23.53;63.24;99654.06;5039972;28;20021;-83
2023/07/29 00:41:59;;;;;;;8.50;4.97;;;;;;;23.44;63.78;99655.56;5039159;28;20029;-84
2023/07/29 00:44:24;;;;;;;8.57;5.10;;;;;;;23.36;63.92;99655.22;5039311;28;20363;-84
2023/07/29 00:46:52;;;;;;;12.10;5.17;;;;;;;23.26;65.10;99654.09;5039085;28;20108;-84
2023/07/29 00:49:19;;;;;;;9.68;5.03;;;;;;;23.16;65.13;99649.31;5034663;28;20036;-84
2023/07/29 00:51:44;;;;;;;7.57;5.10;;;;;;;23.06;65.22;99649.06;5039220;28;20100;-84
2023/07/29 00:54:10;;;;;;;8.87;4.90;;;;;;;23.02;65.32;99646.69;5039277;28;20068;-84
2023/07/29 00:56:36;;;;;;;8.83;4.87;;;;;;;22.98;65.45;99653.22;5038758;28;20043;-85
2023/07/29 00:59:02;;;;;;;11.27;5.68;;;;;;;22.99;65.38;99646.88;5039089;28;20020;-84
2023/07/29 01:01:29;;;;;;;9.50;5.10;;;;;;;22.99;65.46;99644.22;5038723;28;20082;-84
2023/07/29 01:03:54;;;;;;;9.40;5.32;;;;;;;22.96;65.71;99645.28;5037656;28;20025;-84
2023/07/29 01:06:43;;;;;;;10.23;4.80;;;;;;;22.90;65.63;99638.50;5039007;28;20576;-84
2023/07/29 01:09:31;;;;;;;8.10;4.80;;;;;;;22.91;65.70;99642.06;5037911;28;20021;-85
2023/07/29 01:12:28;;;;;;;11.07;4.88;;;;;;;22.91;66.20;99636.69;5037980;28;20397;-84
2023/07/29 01:15:09;;;;;;;10.68;4.57;;;;;;;22.94;65.89;99640.00;5037755;28;20037;-85
2023/07/29 01:17:42;;;;;;;8.50;4.80;;;;;;;22.94;65.95;99637.31;5038477;28;20025;-85
2023/07/29 01:20:09;;;;;;;9.57;4.40;;;;;;;22.93;65.79;99635.59;5038313;28;20576;-85
2023/07/29 01:22:36;;;;;;;8.68;4.30;;;;;;;22.96;65.70;99634.53;5038316;28;20022;-85
2023/07/29 01:25:03;;;;;;;10.25;4.40;;;;;;;23.00;65.46;99635.19;5037607;28;20037;-85
2023/07/29 01:27:29;;;;;;;9.65;5.20;;;;;;;23.00;65.44;99632.50;5038269;28;20025;-86
2023/07/29 01:29:56;;;;;;;8.43;4.27;;;;;;;23.01;65.43;99628.84;5039015;28;20164;-86
2023/07/29 01:32:32;;;;;;;8.18;4.18;;;;;;;23.02;65.51;99631.44;5038222;28;20083;-86
2023/07/29 01:34:58;;;;;;;8.00;4.30;;;;;;;23.05;65.25;99630.41;5035759;28;20037;-85
2023/07/29 01:37:30;;;;;;;8.43;4.40;;;;;;;23.07;65.23;99633.84;5038327;28;20021;-85
2023/07/29 01:39:59;;;;;;;9.18;3.92;;;;;;;23.05;65.18;99638.44;5039351;28;20037;-85
2023/07/29 01:42:26;;;;;;;7.57;4.28;;;;;;;23.03;65.22;99641.22;5038449;28;20029;-86
2023/07/29 01:44:52;;;;;;;8.82;4.60;;;;;;;23.02;65.30;99646.69;5038149;28;20029;-86
2023/07/29 01:47:18;;;;;;;7.13;4.20;;;;;;;23.00;65.21;99654.84;5038444;28;20036;-85
2023/07/29 01:49:43;;;;;;;7.97;4.25;;;;;;;23.03;65.18;99645.72;5038602;28;20030;-85
2023/07/29 01:52:08;;;;;;;10.20;4.33;;;;;;;23.03;65.07;99648.41;5038396;28;20045;-85
2023/07/29 01:54:34;;;;;;;8.73;4.37;;;;;;;22.99;65.08;99638.84;5038693;28;20044;-85
2023/07/29 01:56:59;;;;;;;10.03;4.40;;;;;;;22.96;65.04;99628.31;5037216;28;20037;-85
2023/07/29 01:59:24;;;;;;;7.93;4.00;;;;;;;22.93;65.14;99632.91;5038778;28;20064;-85
2023/07/29 02:01:50;;;;;;;8.80;4.60;;;;;;;22.92;65.00;99616.94;5038599;28;20295;-85
2023/07/29 02:04:15;;;;;;;7.20;4.53;;;;;;;22.88;65.22;99621.63;5038643;28;20057;-85
2023/07/29 02:06:40;;;;;;;8.60;4.10;;;;;;;22.85;65.37;99611.09;5038680;28;20029;-86
2023/07/29 02:09:06;;;;;;;8.00;4.50;;;;;;;22.82;65.19;99611.31;5038754;28;20057;-85
2023/07/29 02:11:31;;;;;;;7.38;4.38;;;;;;;22.81;65.61;99612.25;5047093;28;20028;-85
2023/07/29 02:13:57;;;;;;;8.37;4.40;;;;;;;22.79;65.48;99614.19;5038639;28;20036;-85
2023/07/29 02:16:23;;;;;;;8.90;4.60;;;;;;;22.78;65.58;99613.31;5038169;28;20064;-85
2023/07/29 02:18:49;;;;;;;7.57;3.73;;;;;;;22.79;65.60;99616.88;5035924;28;20108;-85
2023/07/29 02:21:15;;;;;;;7.60;4.25;;;;;;;22.79;65.43;99614.19;5037024;28;20068;-86
2023/07/29 02:23:41;;;;;;;9.60;4.40;;;;;;;22.79;65.34;99616.88;5038510;28;20492;-86
2023/07/29 02:26:06;;;;;;;7.67;3.87;;;;;;;22.76;65.54;99615.25;5038877;28;20029;-85
2023/07/29 02:28:31;;;;;;;9.10;4.17;;;;;;;22.72;65.40;99605.66;5040484;28;20030;-86
2023/07/29 02:31:19;;;;;;;7.13;3.90;;;;;;;22.69;65.40;99602.31;5039436;28;20100;-86
2023/07/29 02:33:45;;;;;;;7.68;3.72;;;;;;;22.65;65.43;99605.22;5039146;28;20110;-86
2023/07/29 02:36:12;;;;;;;7.97;4.10;;;;;;;22.63;65.45;99596.41;5040383;28;20060;-86
2023/07/29 02:38:38;;;;;;;7.37;3.67;;;;;;;22.59;65.37;99589.50;5044310;28;20050;-85
2023/07/29 02:41:03;;;;;;;9.45;4.28;;;;;;;22.54;65.60;99594.28;5040390;28;20116;-87
2023/07/29 02:43:29;;;;;;;7.13;4.30;;;;;;;22.53;65.66;99591.72;5039293;28;20398;-86
2023/07/29 02:45:54;;;;;;;8.77;3.67;;;;;;;22.50;65.51;99590.09;5038417;28;20053;-87
2023/07/29 02:48:19;;;;;;;8.80;4.03;;;;;;;22.45;65.82;99590.38;5038331;28;20500;-85
2023/07/29 02:50:45;;;;;;;8.75;4.25;;;;;;;22.44;65.62;99585.09;5036864;28;20068;-86
2023/07/29 02:53:10;;;;;;;7.13;3.73;;;;;;;22.42;65.50;99587.03;5037939;28;20033;-86
2023/07/29 02:55:39;;;;;;;8.10;4.03;;;;;;;22.41;65.82;99585.31;5037665;28;20029;-86
2023/07/29 02:58:04;;;;;;;7.85;4.10;;;;;;;22.41;65.71;99586.16;5036892;28;20498;-86
2023/07/29 03:00:31;;;;;;;7.40;4.53;;;;;;;22.39;65.83;99589.91;5035961;28;20048;-86
2023/07/29 03:02:57;;;;;;;8.38;3.97;;;;;;;22.36;65.68;99588.28;5037619;28;20029;-86
2023/07/29 03:05:22;;;;;;;8.70;4.03;;;;;;;22.34;65.80;99592.88;5037662;28;20061;-86
2023/07/29 03:07:47;;;;;;;8.20;4.27;;;;;;;22.33;65.70;99586.66;5037510;28;20059;-85
2023/07/29 03:10:14;;;;;;;8.07;4.30;;;;;;;22.30;66.02;99584.16;5040704;28;20075;-86
2023/07/29 03:12:39;;;;;;;7.47;3.90;;;;;;;22.28;65.75;99583.41;5053830;28;20029;-86
2023/07/29 03:15:05;;;;;;;7.57;4.20;;;;;;;22.27;65.77;99581.69;5037375;28;20029;-86
2023/07/29 03:17:30;;;;;;;7.25;4.35;;;;;;;22.23;65.86;99586.41;5035254;28;20165;-86
2023/07/29 03:19:56;;;;;;;10.10;4.40;;;;;;;22.20;65.99;99585.72;5038323;28;20037;-86
2023/07/29 03:22:21;;;;;;;7.43;4.30;;;;;;;22.19;65.94;99581.31;5037738;28;20041;-86
2023/07/29 03:24:46;;;;;;;8.17;4.17;;;;;;;22.15;66.17;99583.31;5037603;28;20402;-86
2023/07/29 03:27:13;;;;;;;8.80;4.17;;;;;;;22.14;66.05;99583.44;5037647;28;20026;-86
2023/07/29 03:29:38;;;;;;;8.27;4.20;;;;;;;22.11;66.26;99583.63;5037965;28;20060;-86
2023/07/29 03:32:04;;;;;;;9.30;4.00;;;;;;;22.09;66.23;99586.41;5037163;28;20063;-86
2023/07/29 03:34:29;;;;;;;8.25;4.40;;;;;;;22.10;66.49;99587.28;5037134;28;20044;-87
2023/07/29 03:36:54;;;;;;;9.97;4.00;;;;;;;22.06;66.28;99579.44;5037118;28;20052;-86
2023/07/29 03:39:20;;;;;;;11.77;4.40;;;;;;;22.04;66.36;99578.63;5040167;28;20091;-86
2023/07/29 03:41:45;;;;;;;7.40;4.27;;;;;;;22.02;66.29;99583.22;5035549;28;20033;-87
2023/07/29 03:44:11;;;;;;;7.47;4.20;;;;;;;21.96;66.52;99580.09;5037359;28;20033;-86
2023/07/29 03:46:36;;;;;;;7.40;4.25;;;;;;;21.91;66.57;99585.75;5036868;28;20025;-85
2023/07/29 03:49:02;;;;;;;8.43;4.40;;;;;;;21.88;67.24;99591.28;5037278;28;20029;-86
2023/07/29 03:51:28;;;;;;;8.23;4.70;;;;;;;21.81;66.98;99588.13;5037182;28;20056;-86
2023/07/29 03:53:53;;;;;;;9.03;4.10;;;;;;;21.75;67.26;99583.16;5037422;28;20049;-85
2023/07/29 03:56:19;;;;;;;8.17;3.97;;;;;;;21.72;67.52;99583.34;5037137;28;20025;-86
2023/07/29 03:58:46;;;;;;;9.97;5.00;;;;;;;21.70;67.38;99580.75;5036625;28;20072;-86
2023/07/29 04:01:11;;;;;;;9.27;4.30;;;;;;;21.65;67.75;99574.81;5036930;28;20033;-86
2023/07/29 04:03:37;;;;;;;8.90;4.23;;;;;;;21.61;67.87;99571.44;5036016;28;20048;-86
2023/07/29 04:06:02;;;;;;;8.07;4.27;;;;;;;21.62;67.80;99569.63;5036710;28;20053;-85
2023/07/29 04:08:28;;;;;;;7.53;4.30;;;;;;;21.67;67.60;99580.06;5036054;28;20104;-86
2023/07/29 04:10:53;;;;;;;9.10;4.70;;;;;;;21.69;67.78;99579.03;5045102;28;20029;-86
2023/07/29 04:13:19;;;;;;;9.20;4.83;;;;;;;21.69;67.61;99581.72;5036749;28;20022;-86
2023/07/29 04:15:45;;;;;;;10.77;4.47;;;;;;;21.70;67.53;99586.13;5036625;28;20029;-86
2023/07/29 04:18:10;;;;;;;7.83;4.70;;;;;;;21.66;67.98;99579.22;5034017;28;20440;-86
2023/07/29 04:20:35;;;;;;;10.93;5.03;;;;;;;21.59;68.46;99585.88;5036777;28;20079;-86
2023/07/29 04:23:01;;;;;;;8.32;4.55;;;;;;;21.52;68.70;99583.56;5035314;28;20033;-86
2023/07/29 04:25:27;;;;;;;12.27;5.00;;;;;;;21.48;68.84;99586.53;5036990;28;20029;-85
2023/07/29 04:27:53;;;;;;;8.32;4.35;;;;;;;21.42;68.76;99585.09;5036516;28;20416;-86
2023/07/29 04:30:18;;;;;;;10.70;4.97;;;;;;;21.36;69.40;99583.63;5036798;28;20063;-87
2023/07/29 04:32:44;;;;;;;8.97;4.30;;;;;;;21.36;69.42;99590.81;5036544;28;20537;-86
2023/07/29 04:35:10;;;;;;;9.82;4.40;;;;;;;21.37;69.18;99587.19;5039576;28;20029;-86
2023/07/29 04:37:35;;;;;;;11.87;5.33;;;;;;;21.37;69.41;99585.34;5038963;28;20029;-86
2023/07/29 04:40:01;;;;;;;9.87;4.97;;;;;;;21.35;69.60;99591.78;5046568;28;20478;-85
2023/07/29 04:42:26;;;;;;;7.93;4.63;;;;;;;21.28;69.66;99585.03;5049116;28;20033;-86
2023/07/29 04:44:51;;;;;;;10.23;4.63;;;;;;;21.23;69.67;99588.03;5040508;28;20029;-87
2023/07/29 04:47:17;;;;;;;11.17;4.70;;;;;;;21.21;70.05;99589.91;5035634;28;20148;-87
2023/07/29 04:49:42;;;;;;;9.87;4.70;;;;;;;21.18;70.13;99590.97;5038952;28;20030;-86
2023/07/29 04:52:08;;;;;;;8.83;4.53;;;;;;;21.16;70.60;99590.19;5038458;28;20021;-86
2023/07/29 04:54:33;;;;;;;11.00;4.97;;;;;;;21.20;70.20;99589.06;5038731;28;20794;-86
2023/07/29 04:56:58;;;;;;;9.10;4.40;;;;;;;21.25;69.73;99582.56;5036941;28;20025;-86
2023/07/29 04:59:24;;;;;;;9.80;4.37;;;;;;;21.28;69.86;99580.56;5038392;28;20032;-86
2023/07/29 05:01:49;;;;;;;10.80;4.53;;;;;;;21.31;69.59;99590.22;5037834;28;20025;-87
2023/07/29 05:04:15;;;;;;;9.38;4.80;;;;;;;21.34;69.61;99595.38;5038178;28;20478;-86
2023/07/29 05:06:40;;;;;;;8.93;4.70;;;;;;;21.34;69.72;99587.34;5040306;28;20064;-86
2023/07/29 05:09:16;;;;;;;10.00;4.97;;;;;;;21.33;69.46;99583.81;5039026;28;20401;-87
2023/07/29 05:11:43;;;;;;;8.98;4.70;;;;;;;21.39;69.28;99582.59;5049350;28;20014;-86
2023/07/29 05:14:09;;;;;;;9.15;4.57;;;;;;;21.38;69.56;99586.22;5050830;28;20055;-86
2023/07/29 05:16:34;;;;;;;10.75;4.65;;;;;;;21.44;69.40;99587.66;5042272;28;20033;-86
2023/07/29 05:19:00;;;;;;;9.27;4.83;;;;;;;21.55;69.07;99587.00;5033886;28;20072;-86
2023/07/29 05:21:25;;;;;;;10.63;4.80;;;;;;;21.65;68.53;99598.94;5032191;28;20065;-85
2023/07/29 05:23:51;;;;;;;10.13;5.33;;;;;;;21.67;68.70;99586.31;5033241;28;20025;-86
2023/07/29 05:26:16;;;;;;;11.53;5.37;;;;;;;21.72;68.54;99594.91;5038723;28;20711;-86
2023/07/29 05:28:41;;;;;;;9.00;5.43;;;;;;;21.68;68.38;99596.06;5043059;28;20021;-87
2023/07/29 05:31:07;;;;;;;10.20;4.83;;;;;;;21.74;68.49;99595.69;5039495;28;20033;-87
2023/07/29 05:33:32;;;;;;;12.03;5.37;;;;;;;21.70;68.99;99590.59;5039824;28;20017;-87
2023/07/29 05:35:58;;;;;;;10.18;5.20;;;;;;;21.59;68.93;99592.09;5039287;28;20052;-87
2023/07/29 05:38:23;;;;;;;10.57;5.43;;;;;;;21.72;68.87;99591.38;5040610;28;20026;-87
2023/07/29 05:40:49;;;;;;;13.83;5.70;;;;;;;21.80;68.60;99600.66;5039581;28;20083;-87
2023/07/29 05:43:14;;;;;;;11.45;5.57;;;;;;;21.86;68.46;99601.25;5039585;28;20040;-87
2023/07/29 05:45:40;;;;;;;14.43;7.03;;;;;;;22.06;67.99;99594.63;5039297;28;20026;-87
2023/07/29 05:48:05;;;;;;;10.57;6.73;;;;;;;22.15;67.55;99598.56;5037963;28;20112;-87
2023/07/29 05:50:31;;;;;;;11.77;7.20;;;;;;;22.15;67.44;99590.53;5039265;28;20022;-86
2023/07/29 05:52:56;;;;;;;14.00;7.13;;;;;;;22.18;67.45;99590.31;5039169;28;20057;-85
2023/07/29 05:55:22;;;;;;;13.33;7.30;;;;;;;22.28;67.29;99590.59;5039182;28;20049;-85
2023/07/29 05:57:47;;;;;;;12.83;5.93;;;;;;;22.34;67.18;99591.06;5037737;28;20470;-86
2023/07/29 06:00:12;;;;;;;12.27;5.43;;;;;;;22.39;67.23;99589.91;5040295;28;20025;-85
2023/07/29 06:02:39;;;;;;;13.30;5.47;;;;;;;22.46;67.00;99593.91;5042009;28;20272;-85
2023/07/29 06:05:05;;;;;;;12.27;5.00;;;;;;;22.60;66.64;99587.69;5039927;28;20045;-85
2023/07/29 06:07:32;;;;;;;9.40;4.87;;;;;;;22.64;66.27;99597.25;5039552;28;20389;-85
2023/07/29 06:09:57;;;;;;;13.73;6.90;;;;;;;22.68;66.50;99597.91;5041563;28;20021;-85
2023/07/29 06:12:23;;;;;;;13.88;6.90;;;;;;;22.70;66.26;99596.88;5044449;28;20028;-85
2023/07/29 06:14:48;;;;;;;17.30;7.00;;;;;;;22.78;66.26;99597.22;5038632;28;20030;-85
2023/07/29 06:17:14;;;;;;;16.83;6.90;;;;;;;22.86;66.08;99596.72;5036540;28;20511;-85
2023/07/29 06:19:39;;;;;;;16.53;7.13;;;;;;;22.88;65.96;99593.91;5037950;28;20025;-85
2023/07/29 06:22:05;;;;;;;13.43;7.00;;;;;;;22.90;66.07;99595.53;5038866;28;20371;-85
2023/07/29 06:24:31;;;;;;;14.20;6.40;;;;;;;22.88;66.14;99599.28;5038366;28;20032;-85
2023/07/29 06:26:56;;;;;;;14.23;5.17;;;;;;;22.92;66.12;99596.28;5038554;28;20092;-85
2023/07/29 06:29:21;;;;;;;12.73;6.00;;;;;;;22.99;65.85;99594.06;5038334;28;20053;-86
2023/07/29 06:31:47;;;;;;;13.70;6.23;;;;;;;23.06;66.09;99599.88;5038568;28;20025;-84
2023/07/29 06:34:12;;;;;;;10.45;5.55;;;;;;;23.20;65.55;99607.03;5038341;28;20029;-84
2023/07/29 06:36:38;;;;;;;10.37;5.00;;;;;;;23.30;65.76;99602.75;5038390;28;20034;-86
2023/07/29 06:39:03;;;;;;;10.97;6.27;;;;;;;23.36;65.02;99609.56;5041425;28;20052;-84
2023/07/29 06:41:28;;;;;;;13.40;5.60;;;;;;;23.39;64.96;99612.03;5037216;28;20410;-83
2023/07/29 06:43:54;;;;;;;11.30;5.37;;;;;;;23.61;64.79;99603.34;5037625;28;20100;-85
2023/07/29 06:46:19;;;;;;;11.57;5.77;;;;;;;23.83;64.43;99603.69;5037352;28;20029;-85
2023/07/29 06:48:45;;;;;;;12.33;5.53;;;;;;;23.91;63.89;99594.09;5037438;28;20288;-85
2023/07/29 06:51:10;;;;;;;11.97;4.97;;;;;;;23.92;63.73;99600.31;5037699;28;20494;-85
2023/07/29 06:53:35;;;;;;;10.43;5.07;;;;;;;24.07;63.71;99604.66;5037501;28;20057;-84
2023/07/29 06:56:01;;;;;;;11.13;5.77;;;;;;;24.29;63.04;99603.13;5037028;28;20033;-85
2023/07/29 06:58:27;;;;;;;10.82;5.57;;;;;;;24.44;63.05;99611.03;5037239;28;20035;-85
2023/07/29 07:00:52;;;;;;;9.75;4.68;;;;;;;24.47;62.36;99608.09;5037293;28;20038;-85
2023/07/29 07:03:18;;;;;;;11.43;4.90;;;;;;;24.58;62.35;99607.31;5037005;28;20075;-85
2023/07/29 07:05:43;;;;;;;11.87;4.97;;;;;;;24.70;61.91;99594.78;5037565;28;20107;-85
2023/07/29 07:08:09;;;;;;;9.10;4.80;;;;;;;24.75;61.99;99606.97;5037656;28;20796;-85
2023/07/29 07:10:34;;;;;;;11.93;5.27;;;;;;;24.94;61.89;99609.16;5043607;28;20017;-85
2023/07/29 07:12:59;;;;;;;8.73;4.30;;;;;;;25.16;61.01;99604.00;5037184;28;20264;-84
2023/07/29 07:15:25;;;;;;;9.77;4.37;;;;;;;25.27;60.72;99609.41;5037130;28;20028;-85
2023/07/29 07:17:51;;;;;;;14.55;5.00;;;;;;;25.36;60.47;99607.84;5036078;28;20108;-84
2023/07/29 07:20:17;;;;;;;12.30;5.00;;;;;;;25.49;60.32;99608.66;5037475;28;20031;-84
2023/07/29 07:22:42;;;;;;;10.40;4.78;;;;;;;25.61;60.17;99605.97;5037407;28;20516;-85
2023/07/29 07:25:08;;;;;;;8.50;5.07;;;;;;;25.80;59.53;99600.00;5037393;28;20079;-84
2023/07/29 07:27:33;;;;;;;10.43;4.40;;;;;;;25.97;59.34;99606.78;5037130;28;20028;-84
2023/07/29 07:29:58;;;;;;;11.00;4.70;;;;;;;26.13;59.39;99606.41;5037482;28;20021;-85
2023/07/29 07:32:24;;;;;;;9.10;5.00;;;;;;;26.28;58.62;99598.06;5037126;28;20263;-84
2023/07/29 07:34:49;;;;;;;8.73;4.50;;;;;;;26.33;58.84;99602.13;5037406;28;20488;-84
2023/07/29 07:37:14;;;;;;;9.20;4.30;;;;;;;26.44;58.60;99608.50;5036589;28;20628;-86
2023/07/29 07:39:40;;;;;;;7.67;4.57;;;;;;;26.53;57.96;99607.75;5040288;28;20029;-84
2023/07/29 07:42:06;;;;;;;9.48;4.60;;;;;;;26.67;58.22;99611.16;5036775;28;20506;-85
2023/07/29 07:44:31;;;;;;;9.53;4.27;;;;;;;26.87;57.72;99607.66;5036423;28;20103;-84
2023/07/29 07:46:56;;;;;;;8.17;4.40;;;;;;;27.07;57.04;99610.56;5035550;28;20031;-85
2023/07/29 07:49:22;;;;;;;9.20;4.30;;;;;;;27.25;56.52;99607.28;5037522;28;20027;-84
2023/07/29 07:51:48;;;;;;;6.97;4.07;;;;;;;27.42;56.49;99612.13;5036868;28;20322;-84
2023/07/29 07:54:13;;;;;;;8.93;4.38;;;;;;;27.59;56.11;99607.13;5036654;28;20064;-85
2023/07/29 07:56:39;;;;;;;8.17;3.80;;;;;;;27.67;55.80;99610.03;5036727;28;20040;-84
2023/07/29 07:59:04;;;;;;;8.37;4.20;;;;;;;27.82;55.46;99605.13;5036091;28;20029;-84
2023/07/29 08:01:37;;;;;;;8.47;4.03;;;;;;;28.01;55.26;99608.94;5036602;28;20810;-85
2023/07/29 08:04:03;;;;;;;9.73;4.28;;;;;;;28.21;54.17;99610.75;5036652;28;20017;-84
2023/07/29 08:06:28;;;;;;;11.52;4.25;;;;;;;28.26;54.24;99607.63;5036595;28;20026;-84
2023/07/29 08:08:54;;;;;;;12.13;4.63;;;;;;;28.34;54.03;99604.25;5036983;28;20517;-84
2023/07/29 08:11:19;;;;;;;8.50;4.15;;;;;;;28.39;54.04;99603.84;5036415;28;20021;-84
2023/07/29 08:13:45;;;;;;;12.53;4.53;;;;;;;28.53;54.01;99605.28;5036839;28;20033;-84
2023/07/29 08:16:10;;;;;;;9.23;4.43;;;;;;;28.68;53.35;99605.75;5036447;28;20036;-84
2023/07/29 08:18:36;;;;;;;7.13;3.97;;;;;;;28.82;53.22;99605.38;5034062;28;20089;-84
2023/07/29 08:21:04;;;;;;;10.67;4.30;;;;;;;28.94;53.13;99604.25;5036025;28;20093;-84
2023/07/29 08:23:33;;;;;;;9.55;4.32;;;;;;;29.11;52.80;99607.25;5034223;28;20025;-84
2023/07/29 08:26:01;;;;;;;8.33;4.13;;;;;;;29.23;52.92;99605.25;5033707;28;20056;-84
2023/07/29 08:28:28;;;;;;;8.07;4.35;;;;;;;29.33;52.18;99605.25;5035749;28;20087;-85
2023/07/29 08:30:54;;;;;;;7.45;4.45;;;;;;;29.43;51.59;99600.69;5035332;28;20029;-84
2023/07/29 08:33:19;;;;;;;7.37;4.00;;;;;;;29.51;51.34;99600.78;5034092;28;20135;-84
2023/07/29 08:35:44;;;;;;;7.93;4.60;;;;;;;29.54;51.55;99598.78;5035294;28;20026;-84
2023/07/29 08:38:10;;;;;;;11.73;4.80;;;;;;;29.48;51.05;99598.38;5035969;28;20018;-84
2023/07/29 08:40:40;;;;;;;8.63;4.90;;;;;;;29.36;50.97;99597.66;5035563;28;20284;-84
2023/07/29 08:43:06;;;;;;;10.27;4.30;;;;;;;29.38;51.22;99602.94;5035371;28;20035;-85
2023/07/29 08:45:36;;;;;;;9.07;4.73;;;;;;;29.43;50.68;99605.25;5034894;28;20105;-84
2023/07/29 08:48:06;;;;;;;11.85;5.32;;;;;;;29.54;51.41;99606.94;5033953;28;20108;-83
2023/07/29 08:50:32;;;;;;;7.45;4.30;;;;;;;29.67;51.08;99607.50;5035471;28;20033;-83
2023/07/29 08:52:59;;;;;;;10.77;4.43;;;;;;;29.80;50.76;99609.88;5035702;28;20025;-83
2023/07/29 08:55:24;;;;;;;8.80;4.68;;;;;;;29.92;50.62;99606.00;5035066;28;20558;-84
2023/07/29 08:57:50;;;;;;;7.55;4.55;;;;;;;29.91;49.77;99598.00;5039471;28;20401;-83
2023/07/29 09:00:17;;;;;;;8.27;4.83;;;;;;;29.85;50.11;99604.03;5038592;28;20393;-84
2023/07/29 09:02:42;;;;;;;7.20;4.07;;;;;;;29.92;50.29;99599.69;5040139;28;20297;-83
2023/07/29 09:05:08;;;;;;;9.23;4.60;;;;;;;30.10;50.39;99594.38;5040410;28;20053;-83
2023/07/29 09:07:36;;;;;;;9.73;4.60;;;;;;;30.32;50.10;99593.13;5040084;28;20044;-83
2023/07/29 09:10:01;;;;;;;8.98;4.57;;;;;;;30.57;49.52;99596.13;5042065;28;20055;-84
2023/07/29 09:12:27;;;;;;;8.43;4.57;;;;;;;30.69;48.38;99595.94;5045117;28;20793;-83
2023/07/29 09:14:54;;;;;;;8.52;4.20;;;;;;;30.73;48.19;99592.75;5039732;28;20029;-83
2023/07/29 09:17:20;;;;;;;8.93;4.23;;;;;;;30.78;48.54;99595.03;5036934;28;20401;-83
2023/07/29 09:19:50;;;;;;;7.68;4.25;;;;;;;30.90;47.74;99588.34;5039831;28;20030;-84
2023/07/29 09:22:22;;;;;;;7.45;4.13;;;;;;;30.97;47.64;99587.72;5039868;28;20037;-84
2023/07/29 09:24:47;;;;;;;7.15;4.00;;;;;;;31.06;47.65;99592.22;5039825;28;20053;-83
2023/07/29 09:27:27;;;;;;;7.33;4.50;;;;;;;31.13;47.32;99582.44;5037265;28;20076;-83
2023/07/29 09:29:53;;;;;;;8.23;4.45;;;;;;;31.28;46.90;99587.34;5030202;28;20065;-83
2023/07/29 09:32:23;;;;;;;7.05;4.20;;;;;;;31.29;46.55;99586.34;5037519;28;20056;-84
2023/07/29 09:34:48;;;;;;;10.88;4.88;;;;;;;31.45;46.59;99581.00;5038700;28;20084;-84
2023/07/29 09:37:21;;;;;;;7.05;4.20;;;;;;;31.58;46.30;99582.47;5035782;28;20029;-85
2023/07/29 09:39:48;;;;;;;8.50;4.10;;;;;;;31.76;46.01;99582.38;5037807;28;20033;-86
2023/07/29 09:42:20;;;;;;;8.45;4.00;;;;;;;31.96;46.09;99583.06;5034144;28;20034;-85
2023/07/29 09:44:47;;;;;;;9.60;4.40;;;;;;;32.19;44.40;99583.31;5037970;28;20040;-84
2023/07/29 09:47:20;;;;;;;6.63;3.83;;;;;;;32.21;44.79;99588.63;5036572;28;20155;-86
2023/07/29 09:49:45;;;;;;;5.78;3.88;;;;;;;32.28;44.44;99583.34;5039172;28;20038;-86
2023/07/29 09:52:11;;;;;;;8.23;4.27;;;;;;;32.35;43.76;99582.56;5038999;28;20021;-86
2023/07/29 09:54:36;;;;;;;6.50;4.03;;;;;;;32.35;44.13;99582.56;5038963;28;20021;-86
2023/07/29 09:57:02;;;;;;;9.05;4.55;;;;;;;32.43;43.87;99578.16;5038462;28;20018;-85
2023/07/29 09:59:28;;;;;;;9.03;3.83;;;;;;;32.43;43.43;99584.47;5038647;28;20029;-86
2023/07/29 10:01:53;;;;;;;7.50;3.90;;;;;;;32.47;43.74;99585.84;5038686;28;20030;-86
2023/07/29 10:04:19;;;;;;;7.97;4.63;;;;;;;32.59;43.06;99582.81;5035052;28;20121;-84
2023/07/29 10:06:46;;;;;;;8.07;4.20;;;;;;;32.64;43.55;99592.16;5034920;28;20105;-83
2023/07/29 10:09:13;;;;;;;8.27;4.20;;;;;;;32.81;43.41;99589.50;5049143;28;20025;-83
2023/07/29 10:11:41;;;;;;;7.20;4.18;;;;;;;32.96;43.31;99597.06;5058504;28;20486;-84
2023/07/29 10:14:08;;;;;;;8.35;4.30;;;;;;;32.99;42.32;99593.97;5032312;28;20030;-84
2023/07/29 10:16:37;;;;;;;6.78;4.25;;;;;;;32.96;42.22;99602.50;5047754;28;20545;-84
2023/07/29 10:19:04;;;;;;;10.65;4.05;;;;;;;33.02;42.71;99599.09;5046310;28;20045;-85
2023/07/29 10:21:30;;;;;;;6.60;4.00;;;;;;;33.18;43.05;99599.13;5047812;28;20073;-83
2023/07/29 10:24:01;;;;;;;8.93;4.63;;;;;;;33.27;41.23;99599.94;5048613;28;20089;-85
2023/07/29 10:26:30;;;;;;;7.47;4.80;;;;;;;33.25;41.68;99592.97;5044231;28;20022;-83
2023/07/29 10:29:04;;;;;;;6.35;3.95;;;;;;;33.14;41.35;99592.25;5052466;28;20037;-83
2023/07/29 10:31:30;;;;;;;8.35;4.28;;;;;;;33.15;41.81;99588.50;5044661;28;20084;-84
2023/07/29 10:33:56;;;;;;;6.47;4.10;;;;;;;33.25;40.95;99587.50;5046632;28;20444;-85
2023/07/29 10:36:23;;;;;;;7.15;4.55;;;;;;;33.04;41.48;99588.88;5044462;28;20020;-84
2023/07/29 10:38:49;;;;;;;6.55;4.53;;;;;;;33.07;41.45;99585.78;5046510;28;20025;-84
2023/07/29 10:41:18;;;;;;;7.38;4.35;;;;;;;33.24;42.23;99581.19;5045037;28;20041;-85
2023/07/29 10:43:43;;;;;;;8.20;4.32;;;;;;;33.52;41.25;99580.88;5039254;28;20034;-80
2023/07/29 10:46:27;;;;;;;8.33;4.20;;;;;;;33.69;41.03;99575.34;5032124;28;20021;-83
2023/07/29 10:48:56;;;;;;;7.75;4.20;;;;;;;33.92;40.80;99578.22;5054093;28;20040;-80
2023/07/29 10:51:27;;;;;;;7.93;4.50;;;;;;;34.01;40.63;99576.34;5051862;28;20028;-80
2023/07/29 10:54:07;;;;;;;8.30;4.30;;;;;;;34.12;40.58;99583.28;5045173;28;20029;-81
2023/07/29 10:56:34;;;;;;;7.95;4.75;;;;;;;34.33;39.19;99583.53;5043499;28;20087;-83
2023/07/29 10:59:33;;;;;;;7.00;4.50;;;;;;;34.15;38.36;99580.22;5045248;28;20033;-82
2023/07/29 11:02:00;;;;;;;7.25;4.50;;;;;;;34.28;39.70;99577.75;5044519;28;20026;-80
2023/07/29 11:04:33;;;;;;;9.23;4.60;;;;;;;34.37;39.33;99580.47;5044089;28;20053;-81
2023/07/29 11:07:11;;;;;;;6.88;3.97;;;;;;;34.38;39.42;99572.06;5045077;28;20037;-85
2023/07/29 11:09:52;;;;;;;7.07;4.07;;;;;;;34.57;39.53;99569.94;5042211;28;20026;-81
2023/07/29 11:12:45;;;;;;;8.90;4.10;;;;;;;34.72;39.26;99572.75;5032263;28;20029;-82
2023/07/29 11:15:19;;;;;;;6.60;3.97;;;;;;;34.85;38.61;99566.66;5038151;28;20468;-83
2023/07/29 11:17:59;;;;;;;8.07;4.60;;;;;;;34.87;38.34;99567.34;5049388;28;20390;-84
2023/07/29 11:20:32;;;;;;;8.25;4.60;;;;;;;34.84;37.83;99554.88;5049107;28;20040;-82
2023/07/29 11:23:01;;;;;;;7.13;4.63;;;;;;;34.85;37.33;99551.13;5045665;28;20010;-81
2023/07/29 11:25:35;;;;;;;7.30;4.18;;;;;;;34.79;37.91;99562.78;5041197;28;20018;-82
2023/07/29 11:28:01;;;;;;;8.13;4.35;;;;;;;34.81;38.14;99555.22;5026678;28;20659;-83
2023/07/29 11:30:27;;;;;;;7.57;4.43;;;;;;;34.84;38.25;99551.28;5038174;28;20017;-83